createdAt,value
2022-09-15T00:03:41.370Z,16.00
2022-09-15T00:08:44.886Z,14.50
2022-09-15T00:13:48.297Z,14.90
2022-09-15T00:18:51.930Z,13.00
2022-09-15T00:23:55.531Z,11.80
2022-09-15T00:29:00.344Z,13.10
2022-09-15T00:34:04.222Z,14.40
2022-09-15T00:39:07.408Z,13.90
2022-09-15T00:49:28.261Z,11.60
2022-09-15T00:54:43.557Z,13.20
2022-09-15T00:59:48.715Z,13.30
2022-09-15T01:04:58.020Z,12.80
2022-09-15T01:10:08.126Z,11.50
2022-09-15T01:15:11.888Z,14.00
2022-09-15T01:20:30.522Z,11.60
2022-09-15T01:26:02.136Z,11.80
2022-09-15T01:31:13.967Z,11.00
2022-09-15T01:36:37.187Z,13.60
2022-09-15T01:41:45.815Z,11.60
2022-09-15T01:46:57.299Z,13.50
2022-09-15T01:52:01.242Z,15.60
2022-09-15T01:57:04.551Z,14.70
2022-09-15T02:02:15.074Z,13.20
2022-09-15T02:07:45.586Z,10.30
2022-09-15T02:12:52.677Z,9.30
2022-09-15T02:17:58.242Z,12.00
2022-09-15T02:23:08.721Z,15.00
2022-09-15T02:28:15.392Z,15.10
2022-09-15T02:33:24.343Z,10.90
2022-09-15T02:38:33.807Z,11.30
2022-09-15T02:43:45.552Z,10.40
2022-09-15T02:48:49.338Z,12.70
2022-09-15T02:53:53.568Z,10.50
2022-09-15T02:58:56.675Z,15.00
2022-09-15T03:03:59.779Z,10.20
2022-09-15T03:14:10.906Z,9.20
2022-09-15T03:19:14.215Z,11.50
2022-09-15T03:29:22.170Z,10.70
2022-09-15T03:34:25.375Z,11.20
2022-09-15T03:44:31.590Z,15.10
2022-09-15T03:49:35.105Z,14.00
2022-09-15T03:54:38.324Z,11.10
2022-09-15T03:59:41.622Z,14.10
2022-09-15T04:09:48.045Z,14.30
2022-09-15T04:14:51.424Z,15.20
2022-09-15T04:19:54.786Z,15.10
2022-09-15T04:35:06.273Z,40.40
2022-09-15T04:40:10.577Z,17.20
2022-09-15T04:45:14.078Z,15.30
2022-09-15T04:50:17.591Z,16.80
2022-09-15T04:55:20.908Z,15.80
2022-09-15T05:05:28.645Z,21.40
2022-09-15T05:10:32.118Z,26.40
2022-09-15T05:15:35.476Z,21.20
2022-09-15T05:25:41.775Z,19.40
2022-09-15T05:30:45.254Z,22.70
2022-09-15T05:35:53.583Z,22.80
2022-09-15T05:41:11.681Z,24.60
2022-09-15T05:46:16.302Z,25.30
2022-09-15T05:51:21.277Z,29.90
2022-09-15T05:56:24.491Z,22.60
2022-09-15T06:01:31.358Z,20.90
2022-09-15T06:06:34.692Z,19.40
2022-09-15T06:11:38.104Z,17.10
2022-09-15T06:16:41.193Z,17.40
2022-09-15T06:21:44.724Z,14.20
2022-09-15T06:26:48.241Z,12.60
2022-09-15T06:31:52.257Z,11.50
2022-09-15T06:36:56.784Z,13.40
2022-09-15T06:42:02.614Z,11.20
2022-09-15T06:47:07.639Z,11.60
2022-09-15T06:52:10.837Z,13.60
2022-09-15T06:57:13.951Z,10.90
2022-09-15T07:02:17.657Z,13.20
2022-09-15T07:07:20.971Z,9.50
2022-09-15T07:12:24.078Z,10.10
2022-09-15T07:17:27.483Z,8.40
2022-09-15T07:22:30.677Z,7.80
2022-09-15T07:27:33.962Z,7.80
2022-09-15T07:32:37.829Z,5.70
2022-09-15T07:37:40.935Z,5.70
2022-09-15T07:42:45.685Z,5.60
2022-09-15T07:47:50.021Z,6.70
2022-09-15T07:52:57.421Z,4.10
2022-09-15T07:58:01.655Z,4.80
2022-09-15T08:03:05.475Z,3.10
2022-09-15T08:08:10.076Z,4.40
2022-09-15T08:13:13.338Z,3.70
2022-09-15T08:18:17.557Z,3.90
2022-09-15T08:23:20.663Z,3.20
2022-09-15T08:28:24.038Z,3.40
2022-09-15T08:33:28.551Z,5.50
2022-09-15T08:38:32.394Z,9.50
2022-09-15T08:43:59.814Z,4.50
2022-09-15T08:49:30.618Z,1.80
2022-09-15T08:54:39.918Z,4.30
2022-09-15T08:59:43.943Z,1.80
2022-09-15T09:05:09.067Z,5.40
2022-09-15T09:10:37.055Z,2.90
2022-09-15T09:15:58.574Z,2.70
2022-09-15T09:21:10.812Z,2.40
2022-09-15T09:26:15.627Z,3.20
2022-09-15T09:31:23.142Z,2.50
2022-09-15T09:36:27.397Z,3.10
2022-09-15T09:41:39.211Z,3.30
2022-09-15T09:46:43.023Z,5.20
2022-09-15T09:51:52.592Z,2.50
2022-09-15T09:57:17.506Z,3.20
2022-09-15T10:02:21.945Z,3.40
2022-09-15T10:07:27.115Z,5.80
2022-09-15T10:12:39.879Z,3.00
2022-09-15T10:17:47.235Z,2.60
2022-09-15T10:22:51.159Z,6.40
2022-09-15T10:28:11.476Z,2.70
2022-09-15T10:33:23.582Z,3.50
2022-09-15T10:38:34.329Z,2.60
2022-09-15T10:44:02.461Z,3.30
2022-09-15T10:49:22.570Z,3.20
2022-09-15T10:55:16.566Z,6.40
2022-09-15T11:00:23.561Z,2.50
2022-09-15T11:05:41.210Z,2.80
2022-09-15T11:11:00.214Z,3.40
2022-09-15T11:16:12.050Z,4.30
2022-09-15T11:21:53.911Z,3.50
2022-09-15T11:27:22.539Z,2.40
2022-09-15T11:32:34.532Z,5.30
2022-09-15T11:37:46.464Z,4.70
2022-09-15T11:42:57.981Z,2.80
2022-09-15T11:48:12.823Z,3.20
2022-09-15T11:53:20.033Z,3.80
2022-09-15T11:58:50.680Z,3.10
2022-09-15T12:04:02.896Z,1.80
2022-09-15T12:09:08.101Z,1.70
2022-09-15T12:14:21.907Z,3.50
2022-09-15T12:19:34.229Z,5.00
2022-09-15T12:24:46.131Z,3.00
2022-09-15T12:29:55.056Z,1.70
2022-09-15T12:35:18.217Z,4.40
2022-09-15T12:40:42.640Z,4.00
2022-09-15T12:45:58.829Z,2.20
2022-09-15T12:51:05.495Z,3.80
2022-09-15T12:56:21.473Z,3.90
2022-09-15T13:01:25.223Z,2.70
2022-09-15T13:06:34.531Z,3.40
2022-09-15T13:11:42.790Z,9.10
2022-09-15T13:16:55.159Z,2.00
2022-09-15T13:22:16.821Z,5.00
2022-09-15T13:27:29.365Z,4.50
2022-09-15T13:32:52.870Z,3.70
2022-09-15T13:38:24.960Z,3.40
2022-09-15T13:43:56.518Z,1.60
2022-09-15T13:49:13.536Z,3.20
2022-09-15T13:54:20.104Z,4.20
2022-09-15T13:59:30.540Z,1.40
2022-09-15T14:04:34.122Z,3.00
2022-09-15T14:09:48.145Z,1.40
2022-09-15T14:14:55.583Z,4.20
2022-09-15T14:20:00.959Z,2.10
2022-09-15T14:25:16.976Z,1.60
2022-09-15T14:30:25.286Z,1.50
2022-09-15T14:35:38.536Z,1.30
2022-09-15T14:40:42.902Z,1.80
2022-09-15T14:46:02.695Z,2.50
2022-09-15T14:56:33.556Z,4.10
2022-09-15T15:01:45.962Z,1.70
2022-09-15T15:12:29.254Z,1.40
2022-09-15T15:17:39.011Z,3.50
2022-09-15T15:22:47.749Z,1.60
2022-09-15T15:27:53.418Z,5.30
2022-09-15T15:33:03.904Z,2.50
2022-09-15T15:38:18.672Z,0.90
2022-09-15T15:43:26.502Z,1.10
2022-09-15T15:48:37.376Z,1.00
2022-09-15T15:53:43.861Z,1.70
2022-09-15T15:58:48.502Z,2.20
2022-09-15T16:03:53.247Z,1.10
2022-09-15T16:08:58.607Z,1.20
2022-09-15T16:14:02.365Z,1.30
2022-09-15T16:19:06.248Z,0.90
2022-09-15T16:24:16.348Z,4.20
2022-09-15T16:29:20.550Z,2.40
2022-09-15T16:34:23.973Z,1.30
2022-09-15T16:39:27.787Z,1.40
2022-09-15T16:44:39.635Z,3.30
2022-09-15T16:49:44.365Z,1.50
2022-09-15T16:54:47.547Z,2.20
2022-09-15T16:59:51.834Z,3.00
2022-09-15T17:04:56.833Z,2.60
2022-09-15T17:10:00.347Z,1.20
2022-09-15T17:15:23.011Z,2.50
2022-09-15T17:20:28.565Z,1.50
2022-09-15T17:25:40.901Z,1.70
2022-09-15T17:30:52.109Z,1.50
2022-09-15T17:36:00.521Z,1.70
2022-09-15T17:41:04.450Z,1.70
2022-09-15T17:46:11.400Z,2.40
2022-09-15T17:51:20.178Z,6.20
2022-09-15T17:56:24.233Z,12.60
2022-09-15T18:01:28.989Z,12.70
2022-09-15T18:06:39.473Z,10.20
2022-09-15T18:11:51.943Z,7.50
2022-09-15T18:16:57.746Z,8.70
2022-09-15T18:22:01.976Z,8.40
2022-09-15T18:27:07.022Z,5.30
2022-09-15T18:32:10.624Z,5.30
2022-09-15T18:37:14.864Z,6.10
2022-09-15T18:42:18.578Z,4.10
2022-09-15T18:47:22.577Z,3.40
2022-09-15T18:52:26.820Z,2.10
2022-09-15T18:57:42.375Z,2.40
2022-09-15T19:02:47.913Z,3.30
2022-09-15T19:07:56.245Z,6.40
2022-09-15T19:13:01.079Z,4.00
2022-09-15T19:18:08.820Z,5.30
2022-09-15T19:23:18.615Z,7.20
2022-09-15T19:28:23.260Z,6.50
2022-09-15T19:33:29.256Z,6.00
2022-09-15T19:38:38.887Z,4.20
2022-09-15T19:43:43.507Z,4.90
2022-09-15T19:48:50.136Z,8.40
2022-09-15T19:53:57.203Z,6.20
2022-09-15T19:59:07.679Z,6.20
2022-09-15T20:04:12.795Z,4.60
2022-09-15T20:09:18.139Z,5.90
2022-09-15T20:14:21.929Z,5.10
2022-09-15T20:19:27.530Z,6.20
2022-09-15T20:24:32.168Z,5.90
2022-09-15T20:29:36.005Z,7.50
2022-09-15T20:34:40.162Z,15.70
2022-09-15T20:39:46.515Z,6.60
2022-09-15T20:44:50.121Z,5.50
2022-09-15T20:49:53.441Z,5.60
2022-09-15T21:00:00.019Z,4.40
2022-09-15T21:05:04.292Z,4.60
2022-09-15T21:10:11.780Z,6.20
2022-09-15T21:15:16.212Z,4.60
2022-09-15T21:20:19.980Z,4.80
2022-09-15T21:25:24.288Z,3.90
2022-09-15T21:30:27.729Z,4.80
2022-09-15T21:35:32.651Z,4.60
2022-09-15T21:40:37.085Z,2.80
2022-09-15T21:45:40.774Z,3.10
2022-09-15T21:50:53.844Z,4.50
2022-09-15T21:56:10.465Z,5.20
2022-09-15T22:01:29.562Z,7.00
2022-09-15T22:06:40.663Z,3.40
2022-09-15T22:11:44.255Z,5.30
2022-09-15T22:16:47.666Z,3.80
2022-09-15T22:21:50.980Z,3.60
2022-09-15T22:26:54.187Z,4.60
2022-09-15T22:31:57.477Z,4.60
2022-09-15T22:42:04.428Z,5.10
2022-09-15T22:47:08.044Z,5.90
2022-09-15T22:52:11.151Z,5.60
2022-09-15T22:57:14.256Z,9.80
2022-09-15T23:07:20.569Z,7.60
2022-09-15T23:12:23.572Z,5.00
2022-09-15T23:17:27.599Z,3.80
2022-09-15T23:22:30.807Z,5.00
2022-09-15T23:27:33.915Z,3.60
2022-09-15T23:32:37.327Z,3.50
2022-09-15T23:37:40.741Z,4.40
2022-09-15T23:42:43.949Z,2.40
2022-09-15T23:47:47.156Z,3.30
2022-09-15T23:52:50.363Z,2.80
2022-09-15T23:57:53.675Z,5.20
